Time;durP1;ratioP1;P1;durP2;ratioP2;P2;SDS_P1;SDS_P2;PMS_P1;PMS_P2;Temp;Humidity;BMP_temperature;BMP_pressure;BME280_temperature;BME280_humidity;BME280_pressure;Samples;Min_cycle;Max_cycle;Signal;HPM_P1;HPM_P2
2023/03/30 00:00:00;;;;;;;1.13;0.35;;;;;;;32.66;35.58;97932.56;7399017;19;20034;-65
2023/03/30 00:02:30;;;;;;;0.10;0.10;;;;;;;32.67;35.39;97931.88;7399545;19;20027;-66
2023/03/30 00:05:01;;;;;;;1.88;0.20;;;;;;;32.85;35.23;97917.25;7403315;19;20007;-66
2023/03/30 00:07:29;;;;;;;0.10;0.10;;;;;;;32.86;35.31;97930.97;7398944;19;20015;-65
2023/03/30 00:09:56;;;;;;;0.15;0.15;;;;;;;32.79;34.89;97931.50;7395298;19;20460;-65
2023/03/30 00:12:28;;;;;;;0.25;0.20;;;;;;;32.63;35.33;97933.91;7396103;19;20014;-65
2023/03/30 00:14:54;;;;;;;0.10;0.10;;;;;;;32.62;35.42;97933.16;7399965;19;20014;-66
2023/03/30 00:17:21;;;;;;;0.10;0.00;;;;;;;32.54;35.25;97927.19;7394778;19;20021;-66
2023/03/30 00:19:47;;;;;;;0.65;0.30;;;;;;;32.61;35.36;97928.84;7395499;19;20011;-66
2023/03/30 00:22:13;;;;;;;0.10;0.10;;;;;;;31.14;36.35;97924.03;7395284;19;20022;-66
2023/03/30 00:24:39;;;;;;;0.50;0.30;;;;;;;32.72;35.24;97918.31;7398878;19;20074;-67
2023/03/30 00:27:06;;;;;;;0.20;0.17;;;;;;;32.92;34.81;97923.94;7396789;19;20015;-67
2023/03/30 00:29:32;;;;;;;0.88;0.30;;;;;;;33.08;34.71;97921.50;7395110;19;20084;-65
2023/03/30 00:31:58;;;;;;;0.63;0.10;;;;;;;33.35;34.24;97915.03;7399154;19;20461;-65
2023/03/30 00:34:25;;;;;;;0.22;0.20;;;;;;;32.97;34.74;97925.50;7400760;19;20018;-65
2023/03/30 00:36:52;;;;;;;0.52;0.17;;;;;;;32.80;34.87;97913.53;7397271;19;20010;-64
2023/03/30 00:39:21;;;;;;;0.20;0.17;;;;;;;32.87;34.96;97914.41;7397009;19;20010;-64
2023/03/30 00:41:48;;;;;;;1.40;0.80;;;;;;;32.81;34.74;97909.22;7396793;19;20347;-64
2023/03/30 00:44:52;;;;;;;0.13;0.13;;;;;;;32.84;35.12;97902.09;7399835;19;20011;-64
2023/03/30 00:47:20;;;;;;;0.57;0.10;;;;;;;32.80;35.33;97901.97;7395593;19;20022;-65
2023/03/30 00:49:47;;;;;;;0.10;0.00;;;;;;;32.87;34.80;97900.75;7397069;19;20022;-64
2023/03/30 00:52:18;;;;;;;0.10;0.10;;;;;;;32.78;35.09;97898.31;7395575;19;20083;-63
2023/03/30 00:54:46;;;;;;;1.65;0.55;;;;;;;32.00;36.15;97890.91;7399593;19;20100;-64
2023/03/30 00:57:13;;;;;;;0.10;0.10;;;;;;;32.15;35.88;97893.56;7394751;19;20017;-63
2023/03/30 00:59:39;;;;;;;0.28;0.10;;;;;;;32.35;35.91;97887.69;7395887;19;20015;-65
2023/03/30 01:02:06;;;;;;;0.20;0.03;;;;;;;32.39;35.37;97887.78;7394042;19;20014;-65
2023/03/30 01:04:36;;;;;;;0.30;0.30;;;;;;;32.13;35.84;97887.00;7397889;19;20038;-64
2023/03/30 01:07:03;;;;;;;8.53;0.67;;;;;;;32.07;35.95;97886.81;7394616;19;20364;-64
2023/03/30 01:09:29;;;;;;;1.20;0.20;;;;;;;32.04;36.22;97880.25;7395044;19;20484;-65
2023/03/30 01:11:56;;;;;;;0.20;0.15;;;;;;;32.16;36.07;97874.16;7393802;19;20106;-65
2023/03/30 01:14:24;;;;;;;0.30;0.30;;;;;;;32.15;36.15;97872.66;7397663;19;20101;-65
2023/03/30 01:17:27;;;;;;;0.10;0.10;;;;;;;32.04;35.74;97876.63;7395288;19;20018;-64
2023/03/30 01:20:31;;;;;;;2.50;0.30;;;;;;;32.06;35.64;97876.69;7392665;19;20037;-63
2023/03/30 01:23:26;;;;;;;0.30;0.28;;;;;;;31.81;35.67;97871.56;7392803;19;20010;-64
2023/03/30 01:26:17;;;;;;;0.40;0.10;;;;;;;31.84;35.80;97875.97;7393687;19;20455;-65
2023/03/30 01:29:22;;;;;;;0.10;0.10;;;;;;;31.50;36.16;97884.25;7395333;19;20023;-65
2023/03/30 01:32:16;;;;;;;0.20;0.10;;;;;;;31.49;36.30;97887.81;7392009;19;20007;-65
2023/03/30 01:34:46;;;;;;;0.10;0.10;;;;;;;31.56;35.79;97875.06;7397108;19;20031;-63
2023/03/30 01:37:37;;;;;;;0.28;0.28;;;;;;;31.74;35.63;97872.78;7394165;19;20082;-63
2023/03/30 01:40:23;;;;;;;0.63;0.43;;;;;;;32.06;34.97;97873.81;7395004;19;20103;-63
2023/03/30 01:43:19;;;;;;;0.10;0.00;;;;;;;31.83;35.49;97874.53;7395119;19;20045;-63
2023/03/30 01:46:03;;;;;;;0.20;0.20;;;;;;;31.36;35.86;97872.97;7400288;19;20033;-64
2023/03/30 01:48:46;;;;;;;7.53;0.95;;;;;;;31.19;35.94;97868.09;7393069;19;20039;-64
2023/03/30 01:51:37;;;;;;;3.50;0.15;;;;;;;31.44;35.72;97869.66;7394475;19;20015;-64
2023/03/30 01:54:08;;;;;;;0.10;0.00;;;;;;;31.32;35.95;97869.22;7396246;19;20011;-64
2023/03/30 01:56:43;;;;;;;0.43;0.43;;;;;;;31.53;35.73;97859.91;7394347;19;20039;-63
2023/03/30 01:59:25;;;;;;;0.10;0.10;;;;;;;31.86;35.16;97868.13;7392520;19;20345;-63
2023/03/30 02:01:59;;;;;;;0.20;0.10;;;;;;;31.52;35.16;97863.44;7395183;19;20015;-64
2023/03/30 02:04:28;;;;;;;6.80;1.02;;;;;;;31.56;35.59;97869.31;7397257;19;20508;-65
2023/03/30 02:07:02;;;;;;;0.88;0.30;;;;;;;31.62;35.26;97866.66;7393977;19;20011;-64
2023/03/30 02:09:31;;;;;;;0.32;0.32;;;;;;;31.41;35.62;97871.75;7391944;19;20027;-65
2023/03/30 02:11:59;;;;;;;0.10;0.00;;;;;;;31.20;35.49;97869.56;7393991;19;20464;-65
2023/03/30 02:14:30;;;;;;;0.25;0.10;;;;;;;31.29;35.46;97871.31;7410902;19;20011;-64
2023/03/30 02:17:05;;;;;;;0.10;0.10;;;;;;;31.45;35.31;97867.53;7406747;19;20058;-64
2023/03/30 02:19:32;;;;;;;0.30;0.25;;;;;;;31.42;35.22;97872.50;7406582;19;20015;-64
2023/03/30 02:22:00;;;;;;;1.73;0.20;;;;;;;31.31;35.32;97880.03;7407604;19;20023;-63
2023/03/30 02:24:29;;;;;;;7.72;0.65;;;;;;;31.16;35.50;97868.69;7410792;19;20006;-64
2023/03/30 02:26:57;;;;;;;0.10;0.10;;;;;;;31.06;35.20;97876.97;7408126;19;20003;-65
2023/03/30 02:29:23;;;;;;;0.20;0.10;;;;;;;30.93;35.44;97881.56;7405367;19;20044;-65
2023/03/30 02:31:53;;;;;;;0.32;0.32;;;;;;;30.79;35.50;97875.28;7405303;19;20006;-65
2023/03/30 02:34:51;;;;;;;0.47;0.30;;;;;;;30.73;35.85;97883.69;7410587;19;20362;-64
2023/03/30 02:37:29;;;;;;;0.10;0.10;;;;;;;30.51;35.81;97886.50;7406049;19;20014;-64
2023/03/30 02:40:17;;;;;;;0.88;0.80;;;;;;;30.52;36.15;97878.59;7407395;19;20007;-65
2023/03/30 02:43:32;;;;;;;0.10;0.00;;;;;;;30.39;35.93;97879.53;7406864;19;20015;-67
2023/03/30 02:46:10;;;;;;;0.10;0.10;;;;;;;30.20;36.42;97883.09;7403700;19;20036;-67
2023/03/30 02:49:05;;;;;;;0.10;0.10;;;;;;;30.06;36.62;97889.03;7403321;19;20418;-67
2023/03/30 02:51:35;;;;;;;0.32;0.10;;;;;;;30.18;36.63;97880.91;7402002;19;20017;-66
2023/03/30 02:54:26;;;;;;;0.20;0.10;;;;;;;30.30;36.02;97892.13;7409470;19;20026;-66
2023/03/30 02:57:16;;;;;;;0.30;0.30;;;;;;;30.27;35.94;97879.06;7405603;19;20031;-65
2023/03/30 03:00:31;;;;;;;0.30;0.30;;;;;;;30.20;36.25;97883.09;7405068;19;20025;-66
2023/03/30 03:03:05;;;;;;;0.10;0.10;;;;;;;30.15;36.13;97881.50;7405531;19;20021;-65
2023/03/30 03:05:32;;;;;;;0.10;0.10;;;;;;;29.40;37.24;97878.50;7404961;19;20074;-65
2023/03/30 03:08:15;;;;;;;0.10;0.10;;;;;;;30.46;35.76;97881.25;7406655;19;20070;-67
2023/03/30 03:10:42;;;;;;;0.10;0.00;;;;;;;30.92;34.70;97888.72;7404607;19;20015;-66
2023/03/30 03:13:09;;;;;;;0.28;0.13;;;;;;;31.04;35.04;97886.25;7403437;19;20006;-66
2023/03/30 03:15:36;;;;;;;0.10;0.10;;;;;;;30.87;34.21;97894.97;7409888;19;20026;-64
2023/03/30 03:18:09;;;;;;;1.58;0.57;;;;;;;30.64;34.25;97890.56;7404720;19;20420;-64
2023/03/30 03:20:35;;;;;;;0.10;0.10;;;;;;;30.86;34.06;97900.00;7404892;19;20010;-63
2023/03/30 03:23:02;;;;;;;1.05;0.65;;;;;;;31.02;34.03;97903.44;7404787;19;20006;-64
2023/03/30 03:25:32;;;;;;;0.10;0.10;;;;;;;30.91;34.13;97907.38;7396182;19;20013;-65
2023/03/30 03:28:03;;;;;;;0.30;0.10;;;;;;;30.50;34.21;97918.75;7400512;19;20752;-66
2023/03/30 03:30:36;;;;;;;0.10;0.00;;;;;;;29.60;35.38;97916.63;7398411;19;20014;-66
2023/03/30 03:33:08;;;;;;;0.10;0.10;;;;;;;28.18;36.94;97937.50;7396785;19;20042;-65
2023/03/30 03:35:38;;;;;;;0.30;0.30;;;;;;;25.90;39.14;97927.03;7398144;19;20027;-64
2023/03/30 03:38:06;;;;;;;0.10;0.10;;;;;;;24.34;42.17;97939.13;7397927;19;20014;-64
2023/03/30 03:40:33;;;;;;;1.33;0.57;;;;;;;23.07;44.90;97945.03;7397351;19;20035;-64
2023/03/30 03:42:59;;;;;;;0.40;0.40;;;;;;;22.46;46.66;97951.44;7396744;19;20021;-63
2023/03/30 03:45:26;;;;;;;3.80;0.28;;;;;;;22.11;49.11;97953.25;7400088;19;20361;-65
2023/03/30 03:47:58;;;;;;;0.10;0.10;;;;;;;20.86;53.28;97949.63;7396692;19;20026;-65
2023/03/30 03:50:38;;;;;;;0.10;0.10;;;;;;;20.45;58.30;97950.69;7396527;19;20348;-64
2023/03/30 03:53:04;;;;;;;2.53;0.20;;;;;;;19.76;64.31;97955.81;7396368;19;20082;-64
2023/03/30 03:55:33;;;;;;;0.50;0.50;;;;;;;19.57;69.67;97956.44;7396048;19;20092;-64
2023/03/30 03:58:01;;;;;;;0.10;0.10;;;;;;;19.35;74.78;97952.56;7396688;19;20024;-62
2023/03/30 04:00:28;;;;;;;0.10;0.00;;;;;;;19.58;75.77;97960.72;7396491;19;20022;-64
2023/03/30 04:02:55;;;;;;;0.10;0.10;;;;;;;19.30;80.43;97972.50;7396621;19;20377;-63
2023/03/30 04:05:26;;;;;;;0.68;0.30;;;;;;;19.34;79.83;97973.63;7398319;19;20043;-65
2023/03/30 04:07:52;;;;;;;0.38;0.38;;;;;;;19.94;78.01;97969.31;7397594;19;20078;-61
2023/03/30 04:10:20;;;;;;;0.10;0.00;;;;;;;20.22;76.65;97980.06;7396575;19;20021;-63
2023/03/30 04:13:15;;;;;;;0.30;0.30;;;;;;;20.20;75.03;97981.97;7394676;19;20011;-63
2023/03/30 04:16:01;;;;;;;6.32;0.30;;;;;;;19.83;77.83;97983.97;7396483;19;20011;-63
2023/03/30 04:18:46;;;;;;;0.80;0.25;;;;;;;19.61;80.10;97985.75;7397450;19;20010;-62
2023/03/30 04:21:22;;;;;;;4.75;1.10;;;;;;;20.11;78.34;97982.66;7397571;19;20098;-62
2023/03/30 04:24:13;;;;;;;0.10;0.10;;;;;;;20.72;74.92;97988.91;7397920;19;20022;-62
2023/03/30 04:27:02;;;;;;;0.10;0.00;;;;;;;21.34;71.23;97990.09;7397765;19;20007;-63
2023/03/30 04:29:39;;;;;;;1.35;0.73;;;;;;;21.14;70.38;98003.50;7395698;19;20066;-62
2023/03/30 04:32:20;;;;;;;0.10;0.10;;;;;;;21.04;71.70;98005.56;7396314;19;20491;-62
2023/03/30 04:34:46;;;;;;;0.25;0.22;;;;;;;21.04;71.49;97999.91;7400482;19;20022;-62
2023/03/30 04:37:34;;;;;;;3.40;0.20;;;;;;;20.92;71.33;98003.88;7391805;19;20007;-62
2023/03/30 04:40:19;;;;;;;0.10;0.10;;;;;;;21.78;70.50;98013.25;7396672;19;20011;-62
2023/03/30 04:42:50;;;;;;;3.83;0.57;;;;;;;27.25;51.99;98000.03;7395604;19;20040;-63
2023/03/30 04:45:35;;;;;;;2.92;0.85;;;;;;;29.04;45.62;98008.81;7399987;19;20006;-63
2023/03/30 04:48:36;;;;;;;2.00;1.00;;;;;;;29.52;43.47;98018.84;7392703;19;20093;-63
2023/03/30 04:51:11;;;;;;;0.10;0.00;;;;;;;29.68;42.45;98008.78;7394506;19;20010;-63
2023/03/30 04:53:57;;;;;;;8.70;0.40;;;;;;;29.85;41.54;98015.94;7398075;19;20066;-63
2023/03/30 04:56:32;;;;;;;1.23;0.17;;;;;;;29.89;40.71;98022.59;7396209;19;20468;-63
2023/03/30 04:59:14;;;;;;;0.10;0.10;;;;;;;30.16;39.87;98007.19;7396700;19;20089;-63
2023/03/30 05:02:03;;;;;;;0.10;0.00;;;;;;;30.28;39.52;98009.78;7395215;19;20015;-63
2023/03/30 05:04:50;;;;;;;8.68;0.43;;;;;;;30.22;39.47;98018.16;7396024;19;20055;-63
2023/03/30 05:07:34;;;;;;;0.32;0.32;;;;;;;30.31;38.94;98015.00;7396995;19;20014;-63
2023/03/30 05:10:39;;;;;;;0.10;0.10;;;;;;;30.29;38.41;98022.78;7391748;19;20007;-63
2023/03/30 05:13:24;;;;;;;1.90;0.25;;;;;;;30.05;38.57;98027.53;7391845;19;20467;-63
2023/03/30 05:15:56;;;;;;;3.28;0.55;;;;;;;29.78;38.59;98035.03;7396367;19;20018;-63
2023/03/30 05:18:57;;;;;;;7.43;0.65;;;;;;;29.47;39.51;98032.25;7391967;19;20015;-62
2023/03/30 05:21:42;;;;;;;0.17;0.17;;;;;;;29.50;39.38;98039.53;7393628;19;20007;-62
2023/03/30 05:24:24;;;;;;;0.35;0.22;;;;;;;29.90;38.92;98044.19;7398626;19;20489;-62
2023/03/30 05:27:12;;;;;;;0.17;0.15;;;;;;;29.99;38.66;98054.59;7395421;19;20011;-62
2023/03/30 05:30:02;;;;;;;0.10;0.10;;;;;;;29.72;38.35;98054.84;7394768;19;20018;-62
2023/03/30 05:32:41;;;;;;;12.48;1.13;;;;;;;29.61;38.89;98058.69;7394079;19;20026;-62
2023/03/30 05:35:21;;;;;;;2.35;0.32;;;;;;;23.87;46.52;98064.09;7394070;19;20025;-62
2023/03/30 05:37:57;;;;;;;6.55;1.05;;;;;;;22.01;53.97;98063.81;7395395;19;20086;-62
2023/03/30 05:40:41;;;;;;;0.35;0.32;;;;;;;21.04;57.82;98081.25;7394973;19;20079;-62
2023/03/30 05:43:33;;;;;;;0.47;0.25;;;;;;;20.07;69.17;98081.25;7394951;19;20352;-62
2023/03/30 05:46:26;;;;;;;10.05;0.63;;;;;;;20.07;71.81;98076.34;7393396;19;20022;-62
2023/03/30 05:49:07;;;;;;;4.18;0.88;;;;;;;19.51;78.01;98083.00;7394092;19;20015;-62
2023/03/30 05:51:50;;;;;;;3.22;0.73;;;;;;;20.10;75.85;98080.06;7393007;19;20083;-62
2023/03/30 05:54:42;;;;;;;1.88;0.75;;;;;;;21.32;68.98;98077.00;7392780;19;20014;-62
2023/03/30 05:57:22;;;;;;;6.00;0.65;;;;;;;20.86;69.32;98074.13;7393370;19;20459;-62
2023/03/30 06:00:24;;;;;;;;;;;;;;;21.32;66.07;98079.81;7394016;19;20011;-62
2023/03/30 06:03:03;;;;;;;7.53;1.10;;;;;;;21.12;65.91;98091.09;7392835;19;20446;-62
2023/03/30 06:05:34;;;;;;;14.60;2.60;;;;;;;19.97;71.55;98097.38;7392634;19;20010;-62
2023/03/30 06:08:00;;;;;;;10.63;1.30;;;;;;;19.65;73.25;98103.94;7394864;19;20035;-62
2023/03/30 06:10:27;;;;;;;9.90;2.83;;;;;;;19.97;72.60;98103.03;7391775;19;20017;-62
2023/03/30 06:12:55;;;;;;;14.00;1.60;;;;;;;21.10;67.58;98098.69;7391267;19;20010;-62
2023/03/30 06:15:36;;;;;;;7.78;2.38;;;;;;;18.85;77.29;98114.75;7395765;19;20014;-62
2023/03/30 06:18:09;;;;;;;9.07;1.30;;;;;;;19.14;76.69;98115.88;7392637;19;20478;-62
2023/03/30 06:20:38;;;;;;;9.85;2.13;;;;;;;17.38;94.25;98121.28;7392023;19;20084;-61
2023/03/30 06:23:04;;;;;;;6.68;2.00;;;;;;;18.73;85.81;98110.91;7393208;19;20019;-62
2023/03/30 06:25:31;;;;;;;3.22;0.80;;;;;;;18.56;86.96;98119.28;7392106;19;20082;-62
2023/03/30 06:27:57;;;;;;;3.25;0.70;;;;;;;19.07;82.56;98113.09;7395992;19;20019;-62
2023/03/30 06:30:25;;;;;;;0.95;0.95;;;;;;;19.12;83.82;98124.16;7392455;19;20018;-62
2023/03/30 06:32:53;;;;;;;16.27;2.13;;;;;;;19.50;79.85;98121.03;7391304;19;20018;-62
2023/03/30 06:35:38;;;;;;;2.83;1.00;;;;;;;20.72;73.03;98113.41;7393645;19;20003;-62
2023/03/30 06:38:04;;;;;;;3.67;1.20;;;;;;;21.79;68.24;98115.97;7392580;19;20023;-62
2023/03/30 06:40:30;;;;;;;2.00;1.15;;;;;;;21.04;70.28;98124.44;7392763;19;20224;-62
2023/03/30 06:42:59;;;;;;;4.05;1.00;;;;;;;21.39;67.34;98125.03;7392007;19;20499;-62
2023/03/30 06:45:28;;;;;;;3.83;1.40;;;;;;;21.48;67.31;98129.97;7395021;19;20018;-62
2023/03/30 06:47:55;;;;;;;1.45;1.33;;;;;;;21.58;67.09;98130.72;7392749;19;20527;-62
2023/03/30 06:50:22;;;;;;;4.57;0.88;;;;;;;21.31;69.72;98134.97;7391911;19;20027;-62
2023/03/30 06:53:11;;;;;;;0.63;0.47;;;;;;;21.52;70.28;98132.34;7390424;19;20014;-62
2023/03/30 06:55:42;;;;;;;0.50;0.50;;;;;;;21.75;70.70;98144.03;7390590;19;20011;-61
2023/03/30 06:58:10;;;;;;;5.30;0.65;;;;;;;21.55;71.13;98137.56;7391225;19;20360;-62
2023/03/30 07:00:38;;;;;;;0.82;0.40;;;;;;;21.37;70.76;98141.09;7397744;19;20014;-62
2023/03/30 07:03:22;;;;;;;4.72;0.90;;;;;;;22.93;65.46;98142.81;7401830;19;20014;-62
2023/03/30 07:06:18;;;;;;;5.47;0.65;;;;;;;22.80;66.11;98152.56;7399466;19;20007;-62
2023/03/30 07:08:45;;;;;;;24.42;1.27;;;;;;;22.90;65.32;98144.75;7398989;19;20014;-62
2023/03/30 07:11:14;;;;;;;2.92;0.73;;;;;;;22.58;66.45;98146.00;7398512;19;20010;-62
2023/03/30 07:13:41;;;;;;;2.50;0.17;;;;;;;22.65;66.32;98146.47;7398521;19;20014;-62
2023/03/30 07:16:08;;;;;;;0.95;0.40;;;;;;;22.67;66.47;98149.44;7398285;19;20010;-62
2023/03/30 07:18:34;;;;;;;1.40;1.10;;;;;;;23.05;66.47;98149.34;7398735;19;20424;-61
2023/03/30 07:21:00;;;;;;;6.95;0.68;;;;;;;23.87;62.29;98152.25;7397025;19;20042;-61
2023/03/30 07:23:39;;;;;;;0.17;0.17;;;;;;;24.43;61.73;98148.84;7399231;19;20015;-61
2023/03/30 07:26:06;;;;;;;1.13;0.68;;;;;;;23.89;62.22;98143.84;7397339;19;20014;-61
2023/03/30 07:28:55;;;;;;;0.35;0.30;;;;;;;22.15;66.78;98154.84;7398771;19;20015;-62
2023/03/30 07:31:23;;;;;;;2.75;0.40;;;;;;;22.68;66.03;98157.34;7396476;19;20007;-62
2023/03/30 07:33:50;;;;;;;0.20;0.20;;;;;;;24.66;58.93;98163.16;7399242;19;20397;-62
2023/03/30 07:36:21;;;;;;;0.50;0.30;;;;;;;23.61;60.94;98164.66;7397032;19;20371;-62
2023/03/30 07:38:47;;;;;;;3.20;0.73;;;;;;;23.27;62.41;98162.28;7397463;19;20467;-62
2023/03/30 07:41:15;;;;;;;0.20;0.20;;;;;;;24.90;59.07;98170.44;7397572;19;20074;-62
2023/03/30 07:43:42;;;;;;;2.13;0.50;;;;;;;26.86;53.87;98163.00;7398358;19;20027;-62
2023/03/30 07:46:11;;;;;;;3.92;0.50;;;;;;;28.70;47.98;98161.94;7397375;19;20022;-63
2023/03/30 07:48:39;;;;;;;1.30;0.35;;;;;;;28.57;46.34;98168.47;7397526;19;20010;-63
2023/03/30 07:51:09;;;;;;;1.75;0.43;;;;;;;27.74;47.61;98169.97;7397287;19;20377;-64
2023/03/30 07:53:40;;;;;;;3.58;1.20;;;;;;;27.52;47.68;98154.47;7396136;19;20015;-63
2023/03/30 07:56:15;;;;;;;0.10;0.10;;;;;;;27.61;47.42;98168.56;7396857;19;20010;-63
2023/03/30 07:58:46;;;;;;;0.75;0.38;;;;;;;27.77;47.20;98168.66;7396917;19;20056;-63
2023/03/30 08:01:13;;;;;;;2.63;0.80;;;;;;;28.96;44.95;98166.09;7395520;19;20011;-63
2023/03/30 08:04:09;;;;;;;0.70;0.22;;;;;;;29.59;42.66;98170.50;7399179;19;20011;-63
2023/03/30 08:06:36;;;;;;;1.10;0.32;;;;;;;29.75;42.04;98176.25;7396332;19;20006;-64
2023/03/30 08:09:03;;;;;;;0.70;0.22;;;;;;;30.00;41.55;98170.19;7396680;19;20010;-64
2023/03/30 08:11:30;;;;;;;0.10;0.00;;;;;;;29.90;41.36;98176.22;7395404;19;20006;-64
2023/03/30 08:13:56;;;;;;;0.57;0.30;;;;;;;30.07;41.17;98182.66;7399684;19;20006;-64
2023/03/30 08:16:23;;;;;;;2.88;0.75;;;;;;;30.14;40.59;98190.16;7398541;19;20471;-63
2023/03/30 08:18:53;;;;;;;0.13;0.10;;;;;;;30.67;39.92;98194.63;7397911;19;20022;-63
2023/03/30 08:21:21;;;;;;;0.57;0.57;;;;;;;30.92;39.37;98184.88;7397402;19;20007;-63
2023/03/30 08:23:47;;;;;;;0.10;0.08;;;;;;;30.92;39.43;98184.13;7397692;19;20015;-63
2023/03/30 08:26:13;;;;;;;0.10;0.10;;;;;;;30.94;39.14;98184.97;7396969;19;20019;-64
2023/03/30 08:28:39;;;;;;;0.43;0.28;;;;;;;30.96;38.83;98193.66;7401634;19;20010;-64
2023/03/30 08:31:07;;;;;;;0.73;0.50;;;;;;;30.87;38.73;98193.97;7396756;19;20070;-65
2023/03/30 08:33:33;;;;;;;1.33;0.32;;;;;;;30.83;39.17;98194.53;7396582;19;20042;-64
2023/03/30 08:36:00;;;;;;;9.07;0.57;;;;;;;30.76;39.09;98192.81;7395444;19;20019;-64
2023/03/30 08:38:26;;;;;;;4.05;0.70;;;;;;;31.10;39.28;98182.69;7396830;19;20035;-64
2023/03/30 08:40:52;;;;;;;1.00;0.43;;;;;;;31.36;38.78;98188.75;7396131;19;20451;-64
2023/03/30 08:43:44;;;;;;;3.92;0.95;;;;;;;31.56;38.34;98185.91;7397507;19;20015;-65
2023/03/30 08:46:14;;;;;;;10.90;2.53;;;;;;;31.67;38.16;98191.38;7397039;19;20018;-65
2023/03/30 08:48:41;;;;;;;9.25;1.58;;;;;;;31.79;38.00;98188.97;7397146;19;20014;-65
2023/03/30 08:51:20;;;;;;;5.38;1.45;;;;;;;31.64;37.42;98186.22;7396767;19;20042;-65
2023/03/30 08:53:52;;;;;;;4.95;0.80;;;;;;;31.55;37.53;98207.47;7398384;19;20019;-65
2023/03/30 08:56:22;;;;;;;9.52;0.93;;;;;;;31.46;37.56;98200.69;7396022;19;20032;-66
2023/03/30 08:59:13;;;;;;;1.30;0.45;;;;;;;31.40;37.48;98203.31;7396265;19;20018;-68
2023/03/30 09:01:51;;;;;;;0.10;0.10;;;;;;;31.50;37.56;98206.59;7396118;19;20332;-71
2023/03/30 09:04:56;;;;;;;16.08;1.48;;;;;;;31.38;37.73;98206.81;7399516;19;20014;-71
2023/03/30 09:07:29;;;;;;;12.02;0.93;;;;;;;31.34;37.39;98212.41;7396553;19;20014;-72
2023/03/30 09:09:56;;;;;;;1.38;0.63;;;;;;;31.34;37.98;98209.53;7395164;19;20099;-71
2023/03/30 09:12:40;;;;;;;0.10;0.00;;;;;;;31.46;38.19;98211.44;7394029;19;20015;-69
2023/03/30 09:15:15;;;;;;;1.17;0.60;;;;;;;31.36;38.28;98215.38;7400673;19;20025;-67
2023/03/30 09:17:54;;;;;;;1.88;1.70;;;;;;;31.52;38.89;98220.31;7394257;19;20007;-66
2023/03/30 09:20:30;;;;;;;9.63;1.00;;;;;;;31.25;38.82;98221.41;7394424;19;20015;-65
2023/03/30 09:23:01;;;;;;;0.63;0.25;;;;;;;31.25;38.41;98225.00;7391551;19;20018;-65
2023/03/30 09:25:32;;;;;;;0.50;0.50;;;;;;;31.52;38.70;98241.19;7393752;19;20487;-65
2023/03/30 09:28:21;;;;;;;0.80;0.38;;;;;;;31.84;38.90;98233.03;7397351;19;20010;-65
2023/03/30 09:30:52;;;;;;;0.45;0.22;;;;;;;31.99;38.87;98235.06;7395464;19;20018;-65
2023/03/30 09:33:39;;;;;;;10.90;2.20;;;;;;;32.03;38.45;98221.53;7394893;19;20011;-65
2023/03/30 09:36:24;;;;;;;1.85;0.10;;;;;;;32.05;38.99;98227.38;7395051;19;20011;-64
2023/03/30 09:38:51;;;;;;;2.00;0.28;;;;;;;32.32;38.64;98223.28;7395155;19;20035;-63
2023/03/30 09:41:38;;;;;;;0.10;0.10;;;;;;;32.33;38.81;98230.53;7394061;19;20014;-63
2023/03/30 09:44:25;;;;;;;2.58;0.65;;;;;;;32.63;37.91;98231.63;7396651;19;20025;-63
2023/03/30 09:46:56;;;;;;;0.85;0.63;;;;;;;32.23;38.29;98233.06;7394909;19;20014;-63
2023/03/30 09:49:27;;;;;;;5.22;0.17;;;;;;;32.21;38.12;98241.63;7394880;19;20010;-63
2023/03/30 09:51:55;;;;;;;0.40;0.35;;;;;;;32.33;37.79;98236.31;7397529;19;20023;-63
2023/03/30 09:54:22;;;;;;;1.13;0.50;;;;;;;32.29;37.95;98236.16;7397322;19;20023;-62
2023/03/30 09:56:53;;;;;;;0.10;0.00;;;;;;;32.75;37.71;98242.78;7393225;19;20038;-62
2023/03/30 09:59:21;;;;;;;0.10;0.10;;;;;;;32.77;37.23;98237.84;7394600;19;20366;-63
2023/03/30 10:01:47;;;;;;;0.25;0.10;;;;;;;32.92;37.67;98242.66;7394296;19;20521;-63
2023/03/30 10:04:15;;;;;;;0.10;0.10;;;;;;;33.30;37.63;98233.81;7396523;19;20460;-63
2023/03/30 10:06:47;;;;;;;0.20;0.20;;;;;;;33.54;38.05;98237.47;7394901;19;20043;-63
2023/03/30 10:09:16;;;;;;;0.00;0.00;;;;;;;33.77;37.28;98233.81;7395578;19;20470;-63
2023/03/30 10:11:51;;;;;;;1.25;0.15;;;;;;;33.86;37.55;98229.75;7394880;19;20502;-63
2023/03/30 10:14:32;;;;;;;1.60;0.43;;;;;;;34.05;37.29;98239.69;7397920;19;20011;-64
2023/03/30 10:17:00;;;;;;;1.60;0.22;;;;;;;34.30;37.18;98245.50;7394337;19;20486;-63
2023/03/30 10:19:27;;;;;;;0.28;0.20;;;;;;;34.37;37.06;98234.81;7395565;19;20014;-64
2023/03/30 10:21:56;;;;;;;0.75;0.15;;;;;;;34.27;37.53;98241.06;7392909;19;20038;-62
2023/03/30 10:24:28;;;;;;;1.95;0.52;;;;;;;34.35;36.73;98238.38;7395023;19;20499;-62
2023/03/30 10:26:58;;;;;;;0.63;0.30;;;;;;;34.48;36.62;98239.44;7392710;19;20049;-62
2023/03/30 10:29:27;;;;;;;14.63;0.30;;;;;;;34.67;36.45;98243.59;7391406;19;20038;-63
2023/03/30 10:32:21;;;;;;;0.28;0.28;;;;;;;34.83;36.12;98230.25;7392055;19;20046;-62
2023/03/30 10:34:54;;;;;;;1.17;0.68;;;;;;;34.49;35.99;98234.41;7400578;19;20051;-62
2023/03/30 10:37:31;;;;;;;0.20;0.20;;;;;;;34.41;35.53;98231.28;7401292;19;20037;-62
2023/03/30 10:40:00;;;;;;;3.70;1.15;;;;;;;34.43;35.42;98231.34;7398685;19;20454;-62
2023/03/30 10:42:30;;;;;;;10.52;1.70;;;;;;;34.47;35.19;98237.22;7401582;19;20462;-64
2023/03/30 10:45:02;;;;;;;3.40;0.57;;;;;;;34.96;35.47;98231.28;7405661;19;20026;-63
2023/03/30 10:47:46;;;;;;;10.98;0.77;;;;;;;35.19;35.34;98239.13;7400509;19;20015;-63
2023/03/30 10:50:54;;;;;;;1.10;0.25;;;;;;;35.13;35.27;98241.16;7399253;19;20014;-63
2023/03/30 10:53:40;;;;;;;3.47;0.77;;;;;;;35.04;35.19;98246.00;7395983;19;20467;-62
2023/03/30 10:56:12;;;;;;;14.02;1.23;;;;;;;35.11;34.57;98244.72;7398609;19;20486;-62
2023/03/30 10:58:51;;;;;;;0.10;0.10;;;;;;;35.10;34.77;98246.16;7400367;19;20023;-63
2023/03/30 11:01:50;;;;;;;4.88;0.55;;;;;;;35.47;34.52;98248.47;7400871;19;20010;-63
2023/03/30 11:04:25;;;;;;;8.45;1.27;;;;;;;35.52;34.20;98247.16;7399399;19;20027;-63
2023/03/30 11:06:55;;;;;;;1.48;0.25;;;;;;;34.83;34.22;98238.94;7398721;19;20010;-64
2023/03/30 11:09:28;;;;;;;0.83;0.57;;;;;;;34.33;34.46;98240.47;7400188;19;20483;-63
2023/03/30 11:12:00;;;;;;;24.10;1.15;;;;;;;34.32;35.08;98233.25;7399688;19;20750;-64
2023/03/30 11:14:56;;;;;;;0.55;0.30;;;;;;;35.23;34.22;98239.22;7401541;19;20030;-64
2023/03/30 11:17:29;;;;;;;9.45;1.45;;;;;;;35.02;33.71;98243.78;7398032;19;20083;-63
2023/03/30 11:19:59;;;;;;;1.23;0.45;;;;;;;35.31;34.04;98245.19;7399126;19;20011;-63
2023/03/30 12:06:31;;;;;;;0.80;0.45;;;;;;;36.74;32.29;98259.81;7393839;19;20099;-83
2023/03/30 12:09:32;;;;;;;0.43;0.43;;;;;;;36.96;32.53;98242.81;7401167;19;20017;-93
2023/03/30 12:12:17;;;;;;;0.98;0.28;;;;;;;37.03;31.64;98252.34;7397735;19;20435;-91
2023/03/30 12:15:08;;;;;;;1.63;0.20;;;;;;;36.67;31.28;98252.41;7396349;19;20481;-85
2023/03/30 12:18:03;;;;;;;0.28;0.10;;;;;;;36.78;31.48;98253.31;7393952;19;20014;-88
2023/03/30 12:20:35;;;;;;;0.70;0.32;;;;;;;36.66;31.79;98250.97;7398623;19;20017;-88
2023/03/30 12:23:16;;;;;;;1.35;0.40;;;;;;;36.72;31.80;98247.41;7396050;19;20103;-91
2023/03/30 12:26:00;;;;;;;;;;;;;;;36.88;32.08;98242.66;7399021;19;20070;-91
2023/03/30 12:28:40;;;;;;;3.20;0.10;;;;;;;37.28;31.88;98250.53;7400784;19;19923;-88
2023/03/30 12:31:06;;;;;;;2.63;0.60;;;;;;;37.41;31.29;98250.06;7400116;19;20006;-87
2023/03/30 12:33:50;;;;;;;4.97;0.90;;;;;;;37.55;30.78;98240.81;7402081;19;20078;-87
2023/03/30 12:36:38;;;;;;;0.63;0.30;;;;;;;37.29;30.41;98243.31;7390867;19;20025;-89
2023/03/30 12:39:35;;;;;;;3.83;0.52;;;;;;;37.44;30.13;98251.56;7389773;19;20014;-91
2023/03/30 12:42:25;;;;;;;3.83;0.30;;;;;;;37.50;29.71;98250.91;7391858;19;20018;-84
2023/03/30 12:45:05;;;;;;;4.55;0.98;;;;;;;37.53;29.58;98261.88;7389473;19;20021;-86
2023/03/30 12:47:50;;;;;;;5.63;1.35;;;;;;;37.41;29.72;98252.97;7394254;19;20089;-86
2023/03/30 12:50:28;;;;;;;1.13;0.20;;;;;;;37.07;29.52;98249.50;7392380;19;20513;-84
2023/03/30 12:53:13;;;;;;;5.43;0.88;;;;;;;36.95;29.52;98244.22;7388842;19;20010;-87
2023/03/30 12:55:46;;;;;;;0.80;0.20;;;;;;;36.63;29.38;98240.75;7395756;19;20022;-85
2023/03/30 12:58:41;;;;;;;5.05;0.82;;;;;;;36.86;29.14;98230.97;7391630;19;20022;-87